sensor_id;sensor_type;location;lat;lon;timestamp;P1;durP1;ratioP1;P2;durP2;ratioP2
12312;SDS011;6220;53.580;9.758;2023-04-24T00:01:38;8.27;;;7.23;;
12312;SDS011;6220;53.580;9.758;2023-04-24T00:04:04;9.30;;;7.37;;
12312;SDS011;6220;53.580;9.758;2023-04-24T00:06:31;7.80;;;7.10;;
12312;SDS011;6220;53.580;9.758;2023-04-24T00:09:00;7.47;;;6.77;;
12312;SDS011;6220;53.580;9.758;2023-04-24T00:11:26;8.03;;;7.23;;
12312;SDS011;6220;53.580;9.758;2023-04-24T00:13:51;8.97;;;6.57;;
12312;SDS011;6220;53.580;9.758;2023-04-24T00:16:17;7.07;;;6.37;;
12312;SDS011;6220;53.580;9.758;2023-04-24T00:18:42;8.67;;;6.93;;
12312;SDS011;6220;53.580;9.758;2023-04-24T00:21:09;7.40;;;6.80;;
12312;SDS011;6220;53.580;9.758;2023-04-24T00:23:35;7.47;;;6.70;;
12312;SDS011;6220;53.580;9.758;2023-04-24T00:26:00;9.83;;;7.07;;
12312;SDS011;6220;53.580;9.758;2023-04-24T00:28:28;7.53;;;6.83;;
12312;SDS011;6220;53.580;9.758;2023-04-24T00:30:53;6.80;;;6.10;;
12312;SDS011;6220;53.580;9.758;2023-04-24T00:33:19;7.10;;;6.40;;
12312;SDS011;6220;53.580;9.758;2023-04-24T00:35:45;7.53;;;6.40;;
12312;SDS011;6220;53.580;9.758;2023-04-24T00:38:10;6.47;;;5.87;;
12312;SDS011;6220;53.580;9.758;2023-04-24T00:40:35;6.30;;;5.57;;
12312;SDS011;6220;53.580;9.758;2023-04-24T00:43:01;6.90;;;6.03;;
12312;SDS011;6220;53.580;9.758;2023-04-24T00:45:26;7.23;;;6.53;;
12312;SDS011;6220;53.580;9.758;2023-04-24T00:47:52;7.07;;;6.37;;
12312;SDS011;6220;53.580;9.758;2023-04-24T00:50:18;6.87;;;6.10;;
12312;SDS011;6220;53.580;9.758;2023-04-24T00:52:44;6.70;;;6.10;;
12312;SDS011;6220;53.580;9.758;2023-04-24T00:55:10;6.93;;;6.23;;
12312;SDS011;6220;53.580;9.758;2023-04-24T00:57:37;8.93;;;6.50;;
12312;SDS011;6220;53.580;9.758;2023-04-24T01:00:03;6.63;;;6.03;;
12312;SDS011;6220;53.580;9.758;2023-04-24T01:02:30;6.50;;;5.90;;
12312;SDS011;6220;53.580;9.758;2023-04-24T01:05:00;6.90;;;5.97;;
12312;SDS011;6220;53.580;9.758;2023-04-24T01:07:26;6.30;;;5.70;;
12312;SDS011;6220;53.580;9.758;2023-04-24T01:09:52;6.17;;;5.47;;
12312;SDS011;6220;53.580;9.758;2023-04-24T01:12:18;6.10;;;5.50;;
12312;SDS011;6220;53.580;9.758;2023-04-24T01:14:44;5.97;;;5.43;;
12312;SDS011;6220;53.580;9.758;2023-04-24T01:17:09;6.83;;;5.40;;
12312;SDS011;6220;53.580;9.758;2023-04-24T01:19:35;5.87;;;5.37;;
12312;SDS011;6220;53.580;9.758;2023-04-24T01:22:02;6.63;;;5.93;;
12312;SDS011;6220;53.580;9.758;2023-04-24T01:24:28;5.50;;;5.00;;
12312;SDS011;6220;53.580;9.758;2023-04-24T01:26:55;7.13;;;5.00;;
12312;SDS011;6220;53.580;9.758;2023-04-24T01:29:20;7.30;;;5.20;;
12312;SDS011;6220;53.580;9.758;2023-04-24T01:31:45;5.87;;;4.73;;
12312;SDS011;6220;53.580;9.758;2023-04-24T01:34:11;4.60;;;4.17;;
12312;SDS011;6220;53.580;9.758;2023-04-24T01:36:39;5.83;;;4.63;;
12312;SDS011;6220;53.580;9.758;2023-04-24T01:39:04;4.40;;;4.00;;
12312;SDS011;6220;53.580;9.758;2023-04-24T01:41:30;5.10;;;4.50;;
12312;SDS011;6220;53.580;9.758;2023-04-24T01:43:56;5.67;;;3.77;;
12312;SDS011;6220;53.580;9.758;2023-04-24T01:46:22;4.03;;;3.73;;
12312;SDS011;6220;53.580;9.758;2023-04-24T01:48:48;5.10;;;4.00;;
12312;SDS011;6220;53.580;9.758;2023-04-24T01:51:14;5.87;;;3.70;;
12312;SDS011;6220;53.580;9.758;2023-04-24T01:53:39;3.93;;;3.53;;
12312;SDS011;6220;53.580;9.758;2023-04-24T01:56:05;3.90;;;3.57;;
12312;SDS011;6220;53.580;9.758;2023-04-24T01:58:30;4.17;;;3.83;;
12312;SDS011;6220;53.580;9.758;2023-04-24T02:00:56;4.07;;;3.77;;
12312;SDS011;6220;53.580;9.758;2023-04-24T02:03:24;3.77;;;3.47;;
12312;SDS011;6220;53.580;9.758;2023-04-24T02:05:50;3.63;;;3.33;;
12312;SDS011;6220;53.580;9.758;2023-04-24T02:08:16;3.40;;;3.10;;
12312;SDS011;6220;53.580;9.758;2023-04-24T02:10:41;3.73;;;3.20;;
12312;SDS011;6220;53.580;9.758;2023-04-24T02:13:07;3.20;;;3.00;;
12312;SDS011;6220;53.580;9.758;2023-04-24T02:15:32;4.67;;;3.40;;
12312;SDS011;6220;53.580;9.758;2023-04-24T02:17:58;4.67;;;3.20;;
12312;SDS011;6220;53.580;9.758;2023-04-24T02:20:23;4.27;;;3.50;;
12312;SDS011;6220;53.580;9.758;2023-04-24T02:22:48;3.40;;;3.10;;
12312;SDS011;6220;53.580;9.758;2023-04-24T02:25:14;4.73;;;3.00;;
12312;SDS011;6220;53.580;9.758;2023-04-24T02:27:39;3.00;;;2.70;;
12312;SDS011;6220;53.580;9.758;2023-04-24T02:30:05;3.00;;;2.67;;
12312;SDS011;6220;53.580;9.758;2023-04-24T02:32:31;3.20;;;2.90;;
12312;SDS011;6220;53.580;9.758;2023-04-24T02:34:56;2.77;;;2.57;;
12312;SDS011;6220;53.580;9.758;2023-04-24T02:37:21;3.07;;;2.60;;
12312;SDS011;6220;53.580;9.758;2023-04-24T02:39:47;3.10;;;2.57;;
12312;SDS011;6220;53.580;9.758;2023-04-24T02:42:12;2.60;;;2.20;;
12312;SDS011;6220;53.580;9.758;2023-04-24T02:44:37;3.57;;;2.60;;
12312;SDS011;6220;53.580;9.758;2023-04-24T02:47:03;2.63;;;2.43;;
12312;SDS011;6220;53.580;9.758;2023-04-24T02:49:28;2.50;;;2.30;;
12312;SDS011;6220;53.580;9.758;2023-04-24T02:51:54;2.80;;;2.60;;
12312;SDS011;6220;53.580;9.758;2023-04-24T02:54:19;2.50;;;2.30;;
12312;SDS011;6220;53.580;9.758;2023-04-24T02:56:44;2.40;;;2.20;;
12312;SDS011;6220;53.580;9.758;2023-04-24T02:59:10;2.93;;;2.67;;
12312;SDS011;6220;53.580;9.758;2023-04-24T03:01:36;2.40;;;2.20;;
12312;SDS011;6220;53.580;9.758;2023-04-24T03:04:01;2.70;;;2.50;;
12312;SDS011;6220;53.580;9.758;2023-04-24T03:06:27;6.60;;;2.53;;
12312;SDS011;6220;53.580;9.758;2023-04-24T03:08:53;2.70;;;2.50;;
12312;SDS011;6220;53.580;9.758;2023-04-24T03:11:19;3.00;;;2.77;;
12312;SDS011;6220;53.580;9.758;2023-04-24T03:13:44;3.20;;;2.90;;
12312;SDS011;6220;53.580;9.758;2023-04-24T03:16:10;4.50;;;3.10;;
12312;SDS011;6220;53.580;9.758;2023-04-24T03:18:35;4.50;;;2.57;;
12312;SDS011;6220;53.580;9.758;2023-04-24T03:21:00;3.47;;;3.13;;
12312;SDS011;6220;53.580;9.758;2023-04-24T03:23:26;3.17;;;2.93;;
12312;SDS011;6220;53.580;9.758;2023-04-24T03:25:51;2.90;;;2.60;;
12312;SDS011;6220;53.580;9.758;2023-04-24T03:28:17;2.80;;;2.60;;
12312;SDS011;6220;53.580;9.758;2023-04-24T03:30:42;3.90;;;2.77;;
12312;SDS011;6220;53.580;9.758;2023-04-24T03:33:07;2.63;;;2.43;;
12312;SDS011;6220;53.580;9.758;2023-04-24T03:35:34;2.77;;;2.57;;
12312;SDS011;6220;53.580;9.758;2023-04-24T03:38:01;3.17;;;2.57;;
12312;SDS011;6220;53.580;9.758;2023-04-24T03:40:26;2.57;;;2.37;;
12312;SDS011;6220;53.580;9.758;2023-04-24T03:42:54;3.77;;;2.60;;
12312;SDS011;6220;53.580;9.758;2023-04-24T03:45:20;3.43;;;2.70;;
12312;SDS011;6220;53.580;9.758;2023-04-24T03:47:45;3.43;;;2.73;;
12312;SDS011;6220;53.580;9.758;2023-04-24T03:50:12;3.10;;;2.40;;
12312;SDS011;6220;53.580;9.758;2023-04-24T03:52:38;2.63;;;2.10;;
12312;SDS011;6220;53.580;9.758;2023-04-24T03:55:03;4.17;;;2.30;;
12312;SDS011;6220;53.580;9.758;2023-04-24T03:57:31;2.20;;;2.00;;
12312;SDS011;6220;53.580;9.758;2023-04-24T03:59:56;2.20;;;2.07;;
12312;SDS011;6220;53.580;9.758;2023-04-24T04:02:22;2.20;;;2.00;;
12312;SDS011;6220;53.580;9.758;2023-04-24T04:04:47;4.00;;;2.47;;
12312;SDS011;6220;53.580;9.758;2023-04-24T04:07:13;2.27;;;2.10;;
12312;SDS011;6220;53.580;9.758;2023-04-24T04:09:38;2.43;;;2.23;;
12312;SDS011;6220;53.580;9.758;2023-04-24T04:12:03;2.60;;;2.40;;
12312;SDS011;6220;53.580;9.758;2023-04-24T04:14:29;3.07;;;2.57;;
12312;SDS011;6220;53.580;9.758;2023-04-24T04:16:54;2.43;;;2.23;;
12312;SDS011;6220;53.580;9.758;2023-04-24T04:19:20;4.17;;;2.30;;
12312;SDS011;6220;53.580;9.758;2023-04-24T04:21:45;2.50;;;2.30;;
12312;SDS011;6220;53.580;9.758;2023-04-24T04:24:11;3.00;;;2.07;;
12312;SDS011;6220;53.580;9.758;2023-04-24T04:26:37;4.97;;;2.60;;
12312;SDS011;6220;53.580;9.758;2023-04-24T04:29:03;3.80;;;2.30;;
12312;SDS011;6220;53.580;9.758;2023-04-24T04:31:28;2.40;;;2.20;;
12312;SDS011;6220;53.580;9.758;2023-04-24T04:33:54;2.43;;;2.23;;
12312;SDS011;6220;53.580;9.758;2023-04-24T04:36:20;2.93;;;2.30;;
12312;SDS011;6220;53.580;9.758;2023-04-24T04:38:45;2.20;;;2.00;;
12312;SDS011;6220;53.580;9.758;2023-04-24T04:41:11;2.73;;;2.23;;
12312;SDS011;6220;53.580;9.758;2023-04-24T04:43:36;2.40;;;2.20;;
12312;SDS011;6220;53.580;9.758;2023-04-24T04:46:03;3.67;;;2.20;;
12312;SDS011;6220;53.580;9.758;2023-04-24T04:48:28;2.70;;;2.10;;
12312;SDS011;6220;53.580;9.758;2023-04-24T04:50:53;3.50;;;2.20;;
12312;SDS011;6220;53.580;9.758;2023-04-24T04:53:19;1.83;;;1.60;;
12312;SDS011;6220;53.580;9.758;2023-04-24T04:55:45;2.53;;;1.87;;
12312;SDS011;6220;53.580;9.758;2023-04-24T04:58:11;2.00;;;1.90;;
12312;SDS011;6220;53.580;9.758;2023-04-24T05:00:36;3.07;;;2.07;;
12312;SDS011;6220;53.580;9.758;2023-04-24T05:03:02;2.20;;;2.00;;
12312;SDS011;6220;53.580;9.758;2023-04-24T05:05:28;2.37;;;1.97;;
12312;SDS011;6220;53.580;9.758;2023-04-24T05:07:53;2.50;;;1.70;;
12312;SDS011;6220;53.580;9.758;2023-04-24T05:10:19;2.17;;;1.97;;
12312;SDS011;6220;53.580;9.758;2023-04-24T05:12:44;1.73;;;1.63;;
12312;SDS011;6220;53.580;9.758;2023-04-24T05:15:10;2.13;;;1.93;;
12312;SDS011;6220;53.580;9.758;2023-04-24T05:17:35;2.13;;;1.93;;
12312;SDS011;6220;53.580;9.758;2023-04-24T05:20:01;2.90;;;1.87;;
12312;SDS011;6220;53.580;9.758;2023-04-24T05:22:30;2.13;;;1.93;;
12312;SDS011;6220;53.580;9.758;2023-04-24T05:24:55;6.33;;;1.80;;
12312;SDS011;6220;53.580;9.758;2023-04-24T05:27:21;2.10;;;1.63;;
12312;SDS011;6220;53.580;9.758;2023-04-24T05:29:46;2.40;;;1.90;;
12312;SDS011;6220;53.580;9.758;2023-04-24T05:32:12;3.50;;;2.20;;
12312;SDS011;6220;53.580;9.758;2023-04-24T05:34:38;3.83;;;1.87;;
12312;SDS011;6220;53.580;9.758;2023-04-24T05:37:03;2.80;;;1.90;;
12312;SDS011;6220;53.580;9.758;2023-04-24T05:39:33;1.60;;;1.47;;
12312;SDS011;6220;53.580;9.758;2023-04-24T05:41:58;1.83;;;1.73;;
12312;SDS011;6220;53.580;9.758;2023-04-24T05:44:26;1.87;;;1.60;;
12312;SDS011;6220;53.580;9.758;2023-04-24T05:46:51;1.70;;;1.60;;
12312;SDS011;6220;53.580;9.758;2023-04-24T05:49:17;2.03;;;1.50;;
12312;SDS011;6220;53.580;9.758;2023-04-24T05:51:42;1.77;;;1.67;;
12312;SDS011;6220;53.580;9.758;2023-04-24T05:54:07;1.90;;;1.80;;
12312;SDS011;6220;53.580;9.758;2023-04-24T05:56:33;3.00;;;1.83;;
12312;SDS011;6220;53.580;9.758;2023-04-24T05:58:58;1.83;;;1.60;;
12312;SDS011;6220;53.580;9.758;2023-04-24T06:01:24;6.07;;;2.10;;
12312;SDS011;6220;53.580;9.758;2023-04-24T06:03:50;2.50;;;1.63;;
12312;SDS011;6220;53.580;9.758;2023-04-24T06:06:15;1.77;;;1.67;;
12312;SDS011;6220;53.580;9.758;2023-04-24T06:08:41;3.00;;;1.90;;
12312;SDS011;6220;53.580;9.758;2023-04-24T06:11:07;2.23;;;1.80;;
12312;SDS011;6220;53.580;9.758;2023-04-24T06:13:32;2.00;;;1.90;;
12312;SDS011;6220;53.580;9.758;2023-04-24T06:15:58;2.80;;;1.83;;
12312;SDS011;6220;53.580;9.758;2023-04-24T06:18:23;3.00;;;1.80;;
12312;SDS011;6220;53.580;9.758;2023-04-24T06:20:48;2.17;;;1.53;;
12312;SDS011;6220;53.580;9.758;2023-04-24T06:23:14;2.10;;;1.90;;
12312;SDS011;6220;53.580;9.758;2023-04-24T06:25:40;2.10;;;1.80;;
12312;SDS011;6220;53.580;9.758;2023-04-24T06:28:05;2.63;;;2.03;;
12312;SDS011;6220;53.580;9.758;2023-04-24T06:30:31;2.10;;;1.90;;
12312;SDS011;6220;53.580;9.758;2023-04-24T06:32:56;1.77;;;1.67;;
12312;SDS011;6220;53.580;9.758;2023-04-24T06:35:21;2.93;;;1.90;;
12312;SDS011;6220;53.580;9.758;2023-04-24T06:37:47;2.30;;;2.10;;
12312;SDS011;6220;53.580;9.758;2023-04-24T06:40:12;3.57;;;1.90;;
12312;SDS011;6220;53.580;9.758;2023-04-24T06:42:38;2.30;;;2.10;;
12312;SDS011;6220;53.580;9.758;2023-04-24T06:45:03;2.77;;;2.23;;
12312;SDS011;6220;53.580;9.758;2023-04-24T06:47:30;2.30;;;2.10;;
12312;SDS011;6220;53.580;9.758;2023-04-24T06:49:55;2.30;;;2.10;;
12312;SDS011;6220;53.580;9.758;2023-04-24T06:52:21;4.90;;;2.40;;
12312;SDS011;6220;53.580;9.758;2023-04-24T06:54:46;3.50;;;2.30;;
12312;SDS011;6220;53.580;9.758;2023-04-24T06:57:11;2.87;;;2.20;;
12312;SDS011;6220;53.580;9.758;2023-04-24T06:59:37;2.53;;;2.33;;
12312;SDS011;6220;53.580;9.758;2023-04-24T07:02:02;2.70;;;2.50;;
12312;SDS011;6220;53.580;9.758;2023-04-24T07:04:28;2.90;;;2.70;;
12312;SDS011;6220;53.580;9.758;2023-04-24T07:06:54;3.33;;;3.00;;
12312;SDS011;6220;53.580;9.758;2023-04-24T07:09:20;3.37;;;3.07;;
12312;SDS011;6220;53.580;9.758;2023-04-24T07:11:47;3.73;;;3.40;;
12312;SDS011;6220;53.580;9.758;2023-04-24T07:14:13;3.40;;;3.10;;
12312;SDS011;6220;53.580;9.758;2023-04-24T07:16:39;5.97;;;3.90;;
12312;SDS011;6220;53.580;9.758;2023-04-24T07:19:04;3.90;;;3.60;;
12312;SDS011;6220;53.580;9.758;2023-04-24T07:21:30;3.97;;;3.67;;
12312;SDS011;6220;53.580;9.758;2023-04-24T07:23:57;4.77;;;3.57;;
12312;SDS011;6220;53.580;9.758;2023-04-24T07:26:22;3.60;;;3.30;;
12312;SDS011;6220;53.580;9.758;2023-04-24T07:28:48;5.70;;;3.70;;
12312;SDS011;6220;53.580;9.758;2023-04-24T07:31:13;4.37;;;3.97;;
12312;SDS011;6220;53.580;9.758;2023-04-24T07:33:39;4.40;;;4.00;;
12312;SDS011;6220;53.580;9.758;2023-04-24T07:36:04;4.17;;;3.80;;
12312;SDS011;6220;53.580;9.758;2023-04-24T07:38:30;4.60;;;4.20;;
12312;SDS011;6220;53.580;9.758;2023-04-24T07:40:56;4.70;;;4.30;;
12312;SDS011;6220;53.580;9.758;2023-04-24T07:43:21;4.17;;;3.87;;
12312;SDS011;6220;53.580;9.758;2023-04-24T07:45:47;5.33;;;4.83;;
12312;SDS011;6220;53.580;9.758;2023-04-24T07:48:12;4.37;;;3.97;;
12312;SDS011;6220;53.580;9.758;2023-04-24T07:50:41;5.03;;;4.57;;
12312;SDS011;6220;53.580;9.758;2023-04-24T07:53:06;5.07;;;4.57;;
12312;SDS011;6220;53.580;9.758;2023-04-24T07:55:32;5.60;;;5.10;;
12312;SDS011;6220;53.580;9.758;2023-04-24T07:57:57;5.73;;;5.27;;
12312;SDS011;6220;53.580;9.758;2023-04-24T08:00:23;5.47;;;4.97;;
12312;SDS011;6220;53.580;9.758;2023-04-24T08:02:48;5.27;;;4.77;;
12312;SDS011;6220;53.580;9.758;2023-04-24T08:05:13;5.00;;;4.50;;
12312;SDS011;6220;53.580;9.758;2023-04-24T08:07:39;4.67;;;4.23;;
12312;SDS011;6220;53.580;9.758;2023-04-24T08:10:04;4.77;;;4.03;;
12312;SDS011;6220;53.580;9.758;2023-04-24T08:12:30;4.33;;;3.93;;
12312;SDS011;6220;53.580;9.758;2023-04-24T08:14:56;3.93;;;3.60;;
12312;SDS011;6220;53.580;9.758;2023-04-24T08:17:21;4.07;;;3.67;;
12312;SDS011;6220;53.580;9.758;2023-04-24T08:19:46;3.63;;;3.33;;
12312;SDS011;6220;53.580;9.758;2023-04-24T08:22:16;4.77;;;3.50;;
12312;SDS011;6220;53.580;9.758;2023-04-24T08:24:41;3.73;;;3.17;;
12312;SDS011;6220;53.580;9.758;2023-04-24T08:27:07;4.63;;;3.73;;
12312;SDS011;6220;53.580;9.758;2023-04-24T08:29:33;3.53;;;3.23;;
12312;SDS011;6220;53.580;9.758;2023-04-24T08:31:58;5.33;;;3.70;;
12312;SDS011;6220;53.580;9.758;2023-04-24T08:34:24;5.70;;;4.03;;
12312;SDS011;6220;53.580;9.758;2023-04-24T08:36:49;4.73;;;4.30;;
12312;SDS011;6220;53.580;9.758;2023-04-24T08:39:15;4.97;;;4.57;;
12312;SDS011;6220;53.580;9.758;2023-04-24T08:41:42;5.10;;;4.67;;
12312;SDS011;6220;53.580;9.758;2023-04-24T08:44:08;5.57;;;5.07;;
12312;SDS011;6220;53.580;9.758;2023-04-24T08:46:35;5.27;;;4.70;;
12312;SDS011;6220;53.580;9.758;2023-04-24T08:49:00;5.80;;;4.70;;
12312;SDS011;6220;53.580;9.758;2023-04-24T08:51:27;5.93;;;5.40;;
12312;SDS011;6220;53.580;9.758;2023-04-24T08:53:53;6.37;;;5.10;;
12312;SDS011;6220;53.580;9.758;2023-04-24T08:56:19;7.90;;;5.77;;
12312;SDS011;6220;53.580;9.758;2023-04-24T08:58:46;6.03;;;5.43;;
12312;SDS011;6220;53.580;9.758;2023-04-24T09:01:11;7.63;;;5.57;;
12312;SDS011;6220;53.580;9.758;2023-04-24T09:03:37;6.53;;;5.93;;
12312;SDS011;6220;53.580;9.758;2023-04-24T09:06:03;7.50;;;6.87;;
12312;SDS011;6220;53.580;9.758;2023-04-24T09:08:29;7.20;;;6.50;;
12312;SDS011;6220;53.580;9.758;2023-04-24T09:10:54;8.27;;;7.47;;
12312;SDS011;6220;53.580;9.758;2023-04-24T09:13:20;8.30;;;6.93;;
12312;SDS011;6220;53.580;9.758;2023-04-24T09:15:45;8.13;;;7.03;;
12312;SDS011;6220;53.580;9.758;2023-04-24T09:18:11;8.83;;;6.70;;
12312;SDS011;6220;53.580;9.758;2023-04-24T09:23:29;6.97;;;6.23;;
12312;SDS011;6220;53.580;9.758;2023-04-24T09:25:55;7.80;;;6.57;;
12312;SDS011;6220;53.580;9.758;2023-04-24T09:28:24;8.60;;;6.93;;
12312;SDS011;6220;53.580;9.758;2023-04-24T09:33:31;9.20;;;6.20;;
12312;SDS011;6220;53.580;9.758;2023-04-24T09:35:57;7.07;;;6.47;;
12312;SDS011;6220;53.580;9.758;2023-04-24T09:38:30;8.27;;;6.60;;
12312;SDS011;6220;53.580;9.758;2023-04-24T09:41:06;7.50;;;6.70;;
12312;SDS011;6220;53.580;9.758;2023-04-24T09:43:32;7.87;;;6.87;;
12312;SDS011;6220;53.580;9.758;2023-04-24T09:45:59;7.87;;;7.07;;
12312;SDS011;6220;53.580;9.758;2023-04-24T09:48:33;7.77;;;6.80;;
12312;SDS011;6220;53.580;9.758;2023-04-24T09:51:00;7.40;;;6.53;;
12312;SDS011;6220;53.580;9.758;2023-04-24T09:53:26;7.93;;;7.23;;
12312;SDS011;6220;53.580;9.758;2023-04-24T09:55:52;8.13;;;7.43;;
12312;SDS011;6220;53.580;9.758;2023-04-24T09:58:18;8.40;;;7.60;;
12312;SDS011;6220;53.580;9.758;2023-04-24T10:00:57;11.23;;;8.70;;
12312;SDS011;6220;53.580;9.758;2023-04-24T10:03:30;9.27;;;7.80;;
12312;SDS011;6220;53.580;9.758;2023-04-24T10:05:59;9.97;;;8.97;;
12312;SDS011;6220;53.580;9.758;2023-04-24T10:08:26;12.30;;;8.63;;
12312;SDS011;6220;53.580;9.758;2023-04-24T10:10:52;10.23;;;8.40;;
12312;SDS011;6220;53.580;9.758;2023-04-24T10:13:17;9.93;;;8.20;;
12312;SDS011;6220;53.580;9.758;2023-04-24T10:15:43;10.30;;;9.20;;
12312;SDS011;6220;53.580;9.758;2023-04-24T10:18:09;9.47;;;8.10;;
12312;SDS011;6220;53.580;9.758;2023-04-24T10:20:36;11.23;;;8.70;;
12312;SDS011;6220;53.580;9.758;2023-04-24T10:23:04;10.47;;;9.37;;
12312;SDS011;6220;53.580;9.758;2023-04-24T10:25:31;15.30;;;9.37;;
12312;SDS011;6220;53.580;9.758;2023-04-24T10:27:59;11.33;;;10.13;;
12312;SDS011;6220;53.580;9.758;2023-04-24T10:30:28;11.37;;;9.63;;
12312;SDS011;6220;53.580;9.758;2023-04-24T10:32:55;12.27;;;11.07;;
12312;SDS011;6220;53.580;9.758;2023-04-24T10:35:21;11.27;;;10.17;;
12312;SDS011;6220;53.580;9.758;2023-04-24T10:37:50;12.90;;;10.63;;
12312;SDS011;6220;53.580;9.758;2023-04-24T10:40:19;11.27;;;10.17;;
12312;SDS011;6220;53.580;9.758;2023-04-24T10:42:51;11.77;;;10.37;;
12312;SDS011;6220;53.580;9.758;2023-04-24T10:45:19;12.70;;;10.20;;
12312;SDS011;6220;53.580;9.758;2023-04-24T10:47:59;12.27;;;10.87;;
12312;SDS011;6220;53.580;9.758;2023-04-24T10:50:27;11.10;;;9.83;;
12312;SDS011;6220;53.580;9.758;2023-04-24T10:52:55;12.03;;;10.77;;
12312;SDS011;6220;53.580;9.758;2023-04-24T10:55:41;14.00;;;10.30;;
12312;SDS011;6220;53.580;9.758;2023-04-24T10:58:08;12.07;;;10.83;;
12312;SDS011;6220;53.580;9.758;2023-04-24T11:00:38;12.20;;;11.00;;
12312;SDS011;6220;53.580;9.758;2023-04-24T11:03:05;13.57;;;10.50;;
12312;SDS011;6220;53.580;9.758;2023-04-24T11:05:49;13.40;;;11.30;;
12312;SDS011;6220;53.580;9.758;2023-04-24T11:08:21;12.73;;;11.53;;
12312;SDS011;6220;53.580;9.758;2023-04-24T11:10:54;13.47;;;12.03;;
12312;SDS011;6220;53.580;9.758;2023-04-24T11:13:22;12.17;;;10.93;;
12312;SDS011;6220;53.580;9.758;2023-04-24T11:18:45;14.30;;;10.80;;
12312;SDS011;6220;53.580;9.758;2023-04-24T11:21:11;13.27;;;11.87;;
12312;SDS011;6220;53.580;9.758;2023-04-24T11:23:47;15.07;;;12.00;;
12312;SDS011;6220;53.580;9.758;2023-04-24T11:26:19;13.07;;;11.10;;
12312;SDS011;6220;53.580;9.758;2023-04-24T11:28:48;12.20;;;10.53;;
12312;SDS011;6220;53.580;9.758;2023-04-24T11:34:13;12.57;;;10.87;;
12312;SDS011;6220;53.580;9.758;2023-04-24T11:36:44;11.00;;;9.90;;
12312;SDS011;6220;53.580;9.758;2023-04-24T11:39:10;11.77;;;10.57;;
12312;SDS011;6220;53.580;9.758;2023-04-24T11:41:36;12.30;;;10.20;;
12312;SDS011;6220;53.580;9.758;2023-04-24T11:44:03;12.00;;;10.90;;
12312;SDS011;6220;53.580;9.758;2023-04-24T11:46:29;11.90;;;10.63;;
12312;SDS011;6220;53.580;9.758;2023-04-24T11:48:56;11.17;;;10.13;;
12312;SDS011;6220;53.580;9.758;2023-04-24T11:51:22;11.57;;;10.00;;
12312;SDS011;6220;53.580;9.758;2023-04-24T11:53:49;10.90;;;9.80;;
12312;SDS011;6220;53.580;9.758;2023-04-24T11:56:17;11.87;;;9.40;;
12312;SDS011;6220;53.580;9.758;2023-04-24T11:58:44;8.97;;;8.07;;
12312;SDS011;6220;53.580;9.758;2023-04-24T12:01:09;13.27;;;9.20;;
12312;SDS011;6220;53.580;9.758;2023-04-24T12:03:35;9.97;;;8.47;;
12312;SDS011;6220;53.580;9.758;2023-04-24T12:08:35;9.70;;;8.10;;
12312;SDS011;6220;53.580;9.758;2023-04-24T12:11:05;9.10;;;8.20;;
12312;SDS011;6220;53.580;9.758;2023-04-24T12:13:34;7.87;;;7.17;;
12312;SDS011;6220;53.580;9.758;2023-04-24T12:16:03;8.60;;;7.27;;
12312;SDS011;6220;53.580;9.758;2023-04-24T12:18:32;10.03;;;7.03;;
12312;SDS011;6220;53.580;9.758;2023-04-24T12:23:46;7.80;;;7.10;;
12312;SDS011;6220;53.580;9.758;2023-04-24T12:26:15;9.03;;;7.53;;
12312;SDS011;6220;53.580;9.758;2023-04-24T12:28:42;8.03;;;7.33;;
12312;SDS011;6220;53.580;9.758;2023-04-24T12:31:08;8.53;;;7.20;;
12312;SDS011;6220;53.580;9.758;2023-04-24T12:33:34;8.50;;;7.70;;
12312;SDS011;6220;53.580;9.758;2023-04-24T12:36:00;8.40;;;7.37;;
12312;SDS011;6220;53.580;9.758;2023-04-24T12:38:26;7.97;;;7.27;;
12312;SDS011;6220;53.580;9.758;2023-04-24T12:41:05;7.93;;;6.90;;
12312;SDS011;6220;53.580;9.758;2023-04-24T12:43:33;8.33;;;7.53;;
12312;SDS011;6220;53.580;9.758;2023-04-24T12:45:59;8.63;;;7.83;;
12312;SDS011;6220;53.580;9.758;2023-04-24T12:48:28;8.97;;;8.13;;
12312;SDS011;6220;53.580;9.758;2023-04-24T12:50:53;10.07;;;8.33;;
12312;SDS011;6220;53.580;9.758;2023-04-24T12:53:20;8.83;;;7.73;;
12312;SDS011;6220;53.580;9.758;2023-04-24T12:55:45;8.73;;;7.83;;
12312;SDS011;6220;53.580;9.758;2023-04-24T12:58:17;9.10;;;8.30;;
12312;SDS011;6220;53.580;9.758;2023-04-24T13:00:42;9.47;;;8.43;;
12312;SDS011;6220;53.580;9.758;2023-04-24T13:03:08;9.00;;;8.20;;
12312;SDS011;6220;53.580;9.758;2023-04-24T13:05:34;8.60;;;7.80;;
12312;SDS011;6220;53.580;9.758;2023-04-24T13:08:00;8.87;;;8.13;;
12312;SDS011;6220;53.580;9.758;2023-04-24T13:10:25;8.77;;;7.97;;
12312;SDS011;6220;53.580;9.758;2023-04-24T13:12:50;9.90;;;8.97;;
12312;SDS011;6220;53.580;9.758;2023-04-24T13:15:16;10.43;;;9.43;;
12312;SDS011;6220;53.580;9.758;2023-04-24T13:17:41;11.23;;;10.17;;
12312;SDS011;6220;53.580;9.758;2023-04-24T13:20:06;10.77;;;9.67;;
12312;SDS011;6220;53.580;9.758;2023-04-24T13:22:32;10.47;;;9.47;;
12312;SDS011;6220;53.580;9.758;2023-04-24T13:24:57;10.53;;;9.57;;
12312;SDS011;6220;53.580;9.758;2023-04-24T13:27:24;9.53;;;8.63;;
12312;SDS011;6220;53.580;9.758;2023-04-24T13:29:49;9.90;;;8.90;;
12312;SDS011;6220;53.580;9.758;2023-04-24T13:32:16;9.07;;;8.17;;
12312;SDS011;6220;53.580;9.758;2023-04-24T13:34:42;9.50;;;8.60;;
12312;SDS011;6220;53.580;9.758;2023-04-24T13:37:09;9.40;;;8.60;;
12312;SDS011;6220;53.580;9.758;2023-04-24T13:39:34;9.30;;;8.40;;
12312;SDS011;6220;53.580;9.758;2023-04-24T13:42:00;9.27;;;8.27;;
12312;SDS011;6220;53.580;9.758;2023-04-24T13:44:25;10.30;;;8.60;;
12312;SDS011;6220;53.580;9.758;2023-04-24T13:46:54;8.70;;;7.90;;
12312;SDS011;6220;53.580;9.758;2023-04-24T13:49:21;8.73;;;8.03;;
12312;SDS011;6220;53.580;9.758;2023-04-24T13:51:49;10.07;;;8.10;;
12312;SDS011;6220;53.580;9.758;2023-04-24T13:54:15;9.07;;;8.27;;
12312;SDS011;6220;53.580;9.758;2023-04-24T13:56:41;9.00;;;8.03;;
12312;SDS011;6220;53.580;9.758;2023-04-24T13:59:06;8.77;;;7.97;;
12312;SDS011;6220;53.580;9.758;2023-04-24T14:01:32;9.00;;;8.10;;
12312;SDS011;6220;53.580;9.758;2023-04-24T14:03:57;9.10;;;8.30;;
12312;SDS011;6220;53.580;9.758;2023-04-24T14:06:23;8.57;;;7.83;;
12312;SDS011;6220;53.580;9.758;2023-04-24T14:08:48;9.17;;;8.27;;
12312;SDS011;6220;53.580;9.758;2023-04-24T14:11:15;8.53;;;7.83;;
12312;SDS011;6220;53.580;9.758;2023-04-24T14:13:41;10.17;;;9.23;;
12312;SDS011;6220;53.580;9.758;2023-04-24T14:16:07;10.33;;;9.27;;
12312;SDS011;6220;53.580;9.758;2023-04-24T14:18:32;10.13;;;9.07;;
12312;SDS011;6220;53.580;9.758;2023-04-24T14:20:58;12.80;;;10.07;;
12312;SDS011;6220;53.580;9.758;2023-04-24T14:23:24;11.23;;;10.17;;
12312;SDS011;6220;53.580;9.758;2023-04-24T14:25:49;11.47;;;10.47;;
12312;SDS011;6220;53.580;9.758;2023-04-24T14:28:17;11.47;;;10.37;;
12312;SDS011;6220;53.580;9.758;2023-04-24T14:30:45;11.07;;;9.93;;
12312;SDS011;6220;53.580;9.758;2023-04-24T14:33:10;11.17;;;10.17;;
12312;SDS011;6220;53.580;9.758;2023-04-24T14:35:37;11.67;;;10.57;;
12312;SDS011;6220;53.580;9.758;2023-04-24T14:38:02;12.10;;;10.87;;
12312;SDS011;6220;53.580;9.758;2023-04-24T14:40:27;11.20;;;10.10;;
12312;SDS011;6220;53.580;9.758;2023-04-24T14:42:53;11.90;;;10.80;;
12312;SDS011;6220;53.580;9.758;2023-04-24T14:45:19;10.67;;;9.67;;
12312;SDS011;6220;53.580;9.758;2023-04-24T14:47:44;10.20;;;9.27;;
12312;SDS011;6220;53.580;9.758;2023-04-24T14:50:10;10.23;;;9.33;;
12312;SDS011;6220;53.580;9.758;2023-04-24T14:52:37;9.00;;;8.20;;
12312;SDS011;6220;53.580;9.758;2023-04-24T14:55:03;9.97;;;8.53;;
12312;SDS011;6220;53.580;9.758;2023-04-24T14:57:28;7.83;;;7.00;;
12312;SDS011;6220;53.580;9.758;2023-04-24T14:59:54;7.50;;;6.80;;
12312;SDS011;6220;53.580;9.758;2023-04-24T15:02:19;4.60;;;4.20;;
12312;SDS011;6220;53.580;9.758;2023-04-24T15:04:45;4.20;;;3.47;;
12312;SDS011;6220;53.580;9.758;2023-04-24T15:07:10;3.70;;;3.27;;
12312;SDS011;6220;53.580;9.758;2023-04-24T15:09:36;5.13;;;4.60;;